Astwood Bank, United Kingdom
Current Conditions -  °F | °C
As of 12:20 AM on Wednesday 26 Nov 2014 (Local Time) from EGBB Reporting Station
Moderate Rain Moderate Rain  
Wind Chill: 39°   Ceiling: 2400
Heat Index: 43°   Visibility: 1.5mi
Dew Point: 41°   Wind: 7mph
Humidity: 93%   Direction: 20°NNE
Pressure: 30"   Gusts: NA
Location:  52.26°N, 1.94°W
Report Text: EGBB 260020Z AUTO 02006KT 2500 RA SCT003/// BKN024/// BKN029/// 06/05 Q1016
Loading
Personal Weather Stations






























Interactive Weather Map New forecast layout! Learn more

10-Day Weather Forecast

Advertisements
Track Severe Weather on mobile